sensor_id;sensor_type;location;lat;lon;timestamp;P1;durP1;ratioP1;P2;durP2;ratioP2
21034;SDS011;10676;50.848;3.272;2022-08-07T00:00:20;13.07;;;11.82;;
21034;SDS011;10676;50.848;3.272;2022-08-07T00:02:46;12.45;;;11.43;;
21034;SDS011;10676;50.848;3.272;2022-08-07T00:05:11;13.23;;;11.93;;
21034;SDS011;10676;50.848;3.272;2022-08-07T00:07:37;15.18;;;12.27;;
21034;SDS011;10676;50.848;3.272;2022-08-07T00:10:03;13.93;;;12.57;;
21034;SDS011;10676;50.848;3.272;2022-08-07T00:12:29;13.60;;;12.20;;
21034;SDS011;10676;50.848;3.272;2022-08-07T00:14:55;13.93;;;12.70;;
21034;SDS011;10676;50.848;3.272;2022-08-07T00:17:21;13.77;;;12.32;;
21034;SDS011;10676;50.848;3.272;2022-08-07T00:19:47;13.30;;;11.82;;
21034;SDS011;10676;50.848;3.272;2022-08-07T00:22:13;14.05;;;11.43;;
21034;SDS011;10676;50.848;3.272;2022-08-07T00:24:38;13.82;;;12.43;;
21034;SDS011;10676;50.848;3.272;2022-08-07T00:27:04;13.25;;;11.77;;
21034;SDS011;10676;50.848;3.272;2022-08-07T00:29:30;12.63;;;10.77;;
21034;SDS011;10676;50.848;3.272;2022-08-07T00:31:55;11.82;;;10.50;;
21034;SDS011;10676;50.848;3.272;2022-08-07T00:34:26;12.52;;;11.32;;
21034;SDS011;10676;50.848;3.272;2022-08-07T00:36:52;12.98;;;11.77;;
21034;SDS011;10676;50.848;3.272;2022-08-07T00:39:18;14.25;;;12.75;;
21034;SDS011;10676;50.848;3.272;2022-08-07T00:42:02;15.07;;;13.57;;
21034;SDS011;10676;50.848;3.272;2022-08-07T00:44:28;16.67;;;12.35;;
21034;SDS011;10676;50.848;3.272;2022-08-07T00:46:53;15.13;;;9.82;;
21034;SDS011;10676;50.848;3.272;2022-08-07T00:49:19;12.35;;;11.15;;
21034;SDS011;10676;50.848;3.272;2022-08-07T00:51:45;10.88;;;9.77;;
21034;SDS011;10676;50.848;3.272;2022-08-07T00:54:10;16.02;;;10.35;;
21034;SDS011;10676;50.848;3.272;2022-08-07T00:56:39;13.18;;;11.38;;
21034;SDS011;10676;50.848;3.272;2022-08-07T00:59:05;13.27;;;10.80;;
21034;SDS011;10676;50.848;3.272;2022-08-07T01:01:32;13.88;;;10.90;;
21034;SDS011;10676;50.848;3.272;2022-08-07T01:03:58;13.45;;;12.25;;
21034;SDS011;10676;50.848;3.272;2022-08-07T01:06:24;14.07;;;12.77;;
21034;SDS011;10676;50.848;3.272;2022-08-07T01:08:51;14.95;;;13.52;;
21034;SDS011;10676;50.848;3.272;2022-08-07T01:11:17;16.95;;;14.88;;
21034;SDS011;10676;50.848;3.272;2022-08-07T01:13:43;18.23;;;16.45;;
21034;SDS011;10676;50.848;3.272;2022-08-07T01:16:09;21.02;;;18.20;;
21034;SDS011;10676;50.848;3.272;2022-08-07T01:18:35;19.08;;;17.05;;
21034;SDS011;10676;50.848;3.272;2022-08-07T01:21:10;19.55;;;16.92;;
21034;SDS011;10676;50.848;3.272;2022-08-07T01:23:40;20.42;;;17.65;;
21034;SDS011;10676;50.848;3.272;2022-08-07T01:26:07;25.33;;;17.95;;
21034;SDS011;10676;50.848;3.272;2022-08-07T01:28:34;19.55;;;16.10;;
21034;SDS011;10676;50.848;3.272;2022-08-07T01:31:01;23.80;;;21.40;;
21034;SDS011;10676;50.848;3.272;2022-08-07T01:33:27;23.13;;;20.63;;
21034;SDS011;10676;50.848;3.272;2022-08-07T01:35:54;22.60;;;20.25;;
21034;SDS011;10676;50.848;3.272;2022-08-07T01:38:24;25.17;;;22.30;;
21034;SDS011;10676;50.848;3.272;2022-08-07T01:40:51;23.05;;;18.15;;
21034;SDS011;10676;50.848;3.272;2022-08-07T01:43:24;28.80;;;21.15;;
21034;SDS011;10676;50.848;3.272;2022-08-07T01:45:50;23.63;;;20.38;;
21034;SDS011;10676;50.848;3.272;2022-08-07T01:48:17;23.23;;;19.52;;
21034;SDS011;10676;50.848;3.272;2022-08-07T01:50:44;24.23;;;19.58;;
21034;SDS011;10676;50.848;3.272;2022-08-07T01:53:13;27.75;;;20.65;;
21034;SDS011;10676;50.848;3.272;2022-08-07T01:55:43;23.17;;;20.10;;
21034;SDS011;10676;50.848;3.272;2022-08-07T01:58:12;29.80;;;22.88;;
21034;SDS011;10676;50.848;3.272;2022-08-07T02:00:40;31.10;;;21.88;;
21034;SDS011;10676;50.848;3.272;2022-08-07T02:03:11;24.83;;;20.48;;
21034;SDS011;10676;50.848;3.272;2022-08-07T02:05:51;29.35;;;21.70;;
21034;SDS011;10676;50.848;3.272;2022-08-07T02:08:21;29.10;;;23.65;;
21034;SDS011;10676;50.848;3.272;2022-08-07T02:10:49;28.23;;;21.27;;
21034;SDS011;10676;50.848;3.272;2022-08-07T02:13:21;30.30;;;21.80;;
21034;SDS011;10676;50.848;3.272;2022-08-07T02:15:48;29.50;;;23.17;;
21034;SDS011;10676;50.848;3.272;2022-08-07T02:18:15;35.03;;;24.93;;
21034;SDS011;10676;50.848;3.272;2022-08-07T02:20:43;31.73;;;23.90;;
21034;SDS011;10676;50.848;3.272;2022-08-07T02:23:11;34.00;;;23.57;;
21034;SDS011;10676;50.848;3.272;2022-08-07T02:25:39;29.47;;;22.13;;
21034;SDS011;10676;50.848;3.272;2022-08-07T02:28:06;32.07;;;21.30;;
21034;SDS011;10676;50.848;3.272;2022-08-07T02:30:32;32.17;;;22.37;;
21034;SDS011;10676;50.848;3.272;2022-08-07T02:33:00;26.57;;;20.80;;
21034;SDS011;10676;50.848;3.272;2022-08-07T02:35:28;27.53;;;22.13;;
21034;SDS011;10676;50.848;3.272;2022-08-07T02:37:57;27.83;;;22.03;;
21034;SDS011;10676;50.848;3.272;2022-08-07T02:40:24;30.57;;;22.73;;
21034;SDS011;10676;50.848;3.272;2022-08-07T02:42:50;31.53;;;21.70;;
21034;SDS011;10676;50.848;3.272;2022-08-07T02:45:17;31.67;;;23.83;;
21034;SDS011;10676;50.848;3.272;2022-08-07T02:47:44;37.30;;;25.40;;
21034;SDS011;10676;50.848;3.272;2022-08-07T02:50:10;37.43;;;29.40;;
21034;SDS011;10676;50.848;3.272;2022-08-07T02:52:43;43.03;;;30.10;;
21034;SDS011;10676;50.848;3.272;2022-08-07T02:55:22;44.70;;;30.27;;
21034;SDS011;10676;50.848;3.272;2022-08-07T02:57:51;43.73;;;30.43;;
21034;SDS011;10676;50.848;3.272;2022-08-07T03:00:18;46.60;;;31.77;;
21034;SDS011;10676;50.848;3.272;2022-08-07T03:02:46;50.77;;;30.70;;
21034;SDS011;10676;50.848;3.272;2022-08-07T03:05:13;51.97;;;32.27;;
21034;SDS011;10676;50.848;3.272;2022-08-07T03:07:40;59.80;;;31.53;;
21034;SDS011;10676;50.848;3.272;2022-08-07T03:10:07;48.43;;;31.77;;
21034;SDS011;10676;50.848;3.272;2022-08-07T03:12:34;48.33;;;29.77;;
21034;SDS011;10676;50.848;3.272;2022-08-07T03:15:01;45.00;;;28.93;;
21034;SDS011;10676;50.848;3.272;2022-08-07T03:17:29;43.27;;;29.33;;
21034;SDS011;10676;50.848;3.272;2022-08-07T03:19:56;53.40;;;34.80;;
21034;SDS011;10676;50.848;3.272;2022-08-07T03:22:22;47.60;;;33.58;;
21034;SDS011;10676;50.848;3.272;2022-08-07T03:24:49;51.23;;;34.20;;
21034;SDS011;10676;50.848;3.272;2022-08-07T03:27:15;52.77;;;32.10;;
21034;SDS011;10676;50.848;3.272;2022-08-07T03:29:44;49.37;;;32.10;;
21034;SDS011;10676;50.848;3.272;2022-08-07T03:32:12;52.63;;;31.03;;
21034;SDS011;10676;50.848;3.272;2022-08-07T03:34:41;52.53;;;32.30;;
21034;SDS011;10676;50.848;3.272;2022-08-07T03:37:09;59.72;;;32.63;;
21034;SDS011;10676;50.848;3.272;2022-08-07T03:39:35;57.05;;;31.80;;
21034;SDS011;10676;50.848;3.272;2022-08-07T03:42:03;51.00;;;32.53;;
21034;SDS011;10676;50.848;3.272;2022-08-07T03:44:30;52.07;;;34.40;;
21034;SDS011;10676;50.848;3.272;2022-08-07T03:46:58;50.70;;;33.93;;
21034;SDS011;10676;50.848;3.272;2022-08-07T03:49:25;51.17;;;34.57;;
21034;SDS011;10676;50.848;3.272;2022-08-07T03:51:51;53.17;;;35.35;;
21034;SDS011;10676;50.848;3.272;2022-08-07T03:54:18;53.40;;;33.20;;
21034;SDS011;10676;50.848;3.272;2022-08-07T03:56:45;53.37;;;32.47;;
21034;SDS011;10676;50.848;3.272;2022-08-07T03:59:11;58.35;;;33.47;;
21034;SDS011;10676;50.848;3.272;2022-08-07T04:01:39;54.88;;;32.50;;
21034;SDS011;10676;50.848;3.272;2022-08-07T04:04:09;57.10;;;33.00;;
21034;SDS011;10676;50.848;3.272;2022-08-07T04:06:36;51.75;;;30.73;;
21034;SDS011;10676;50.848;3.272;2022-08-07T04:09:04;55.73;;;34.27;;
21034;SDS011;10676;50.848;3.272;2022-08-07T04:11:31;51.40;;;31.17;;
21034;SDS011;10676;50.848;3.272;2022-08-07T04:13:58;52.90;;;32.45;;
21034;SDS011;10676;50.848;3.272;2022-08-07T04:16:25;52.20;;;37.88;;
21034;SDS011;10676;50.848;3.272;2022-08-07T04:18:52;49.37;;;36.60;;
21034;SDS011;10676;50.848;3.272;2022-08-07T04:21:17;61.13;;;41.47;;
21034;SDS011;10676;50.848;3.272;2022-08-07T04:23:43;52.07;;;35.23;;
21034;SDS011;10676;50.848;3.272;2022-08-07T04:26:10;51.87;;;40.07;;
21034;SDS011;10676;50.848;3.272;2022-08-07T04:28:37;53.83;;;40.80;;
21034;SDS011;10676;50.848;3.272;2022-08-07T04:31:04;54.17;;;39.50;;
21034;SDS011;10676;50.848;3.272;2022-08-07T04:33:30;57.63;;;38.57;;
21034;SDS011;10676;50.848;3.272;2022-08-07T04:35:56;55.00;;;34.67;;
21034;SDS011;10676;50.848;3.272;2022-08-07T04:38:24;57.13;;;34.43;;
21034;SDS011;10676;50.848;3.272;2022-08-07T04:40:50;54.07;;;33.67;;
21034;SDS011;10676;50.848;3.272;2022-08-07T04:43:16;59.57;;;35.33;;
21034;SDS011;10676;50.848;3.272;2022-08-07T04:46:12;60.45;;;35.92;;
21034;SDS011;10676;50.848;3.272;2022-08-07T04:51:09;62.63;;;38.08;;
21034;SDS011;10676;50.848;3.272;2022-08-07T04:54:03;62.15;;;38.65;;
21034;SDS011;10676;50.848;3.272;2022-08-07T04:59:52;65.95;;;38.47;;
21034;SDS011;10676;50.848;3.272;2022-08-07T05:02:26;62.75;;;37.92;;
21034;SDS011;10676;50.848;3.272;2022-08-07T05:05:11;54.97;;;36.03;;
21034;SDS011;10676;50.848;3.272;2022-08-07T05:10:22;54.08;;;33.33;;
21034;SDS011;10676;50.848;3.272;2022-08-07T05:12:54;54.50;;;33.63;;
21034;SDS011;10676;50.848;3.272;2022-08-07T05:15:41;50.05;;;32.28;;
21034;SDS011;10676;50.848;3.272;2022-08-07T05:18:12;45.28;;;30.75;;
21034;SDS011;10676;50.848;3.272;2022-08-07T05:20:44;48.22;;;33.78;;
21034;SDS011;10676;50.848;3.272;2022-08-07T05:23:18;45.40;;;33.78;;
21034;SDS011;10676;50.848;3.272;2022-08-07T05:25:46;40.92;;;28.83;;
21034;SDS011;10676;50.848;3.272;2022-08-07T05:28:13;38.35;;;28.15;;
21034;SDS011;10676;50.848;3.272;2022-08-07T05:30:41;37.80;;;26.58;;
21034;SDS011;10676;50.848;3.272;2022-08-07T05:33:08;42.28;;;28.25;;
21034;SDS011;10676;50.848;3.272;2022-08-07T05:35:35;34.03;;;28.60;;
21034;SDS011;10676;50.848;3.272;2022-08-07T05:38:01;44.08;;;28.75;;
21034;SDS011;10676;50.848;3.272;2022-08-07T05:40:30;31.00;;;24.27;;
21034;SDS011;10676;50.848;3.272;2022-08-07T05:42:57;32.00;;;24.35;;
21034;SDS011;10676;50.848;3.272;2022-08-07T05:45:24;28.88;;;22.20;;
21034;SDS011;10676;50.848;3.272;2022-08-07T05:47:52;25.50;;;22.70;;
21034;SDS011;10676;50.848;3.272;2022-08-07T05:50:18;29.08;;;20.20;;
21034;SDS011;10676;50.848;3.272;2022-08-07T05:52:45;27.08;;;21.38;;
21034;SDS011;10676;50.848;3.272;2022-08-07T05:55:11;26.20;;;21.30;;
21034;SDS011;10676;50.848;3.272;2022-08-07T05:57:37;22.52;;;19.52;;
21034;SDS011;10676;50.848;3.272;2022-08-07T06:00:05;25.40;;;19.27;;
21034;SDS011;10676;50.848;3.272;2022-08-07T06:02:34;21.33;;;19.00;;
21034;SDS011;10676;50.848;3.272;2022-08-07T06:05:04;23.40;;;20.60;;
21034;SDS011;10676;50.848;3.272;2022-08-07T06:07:32;25.13;;;22.33;;
21034;SDS011;10676;50.848;3.272;2022-08-07T06:09:59;28.35;;;25.58;;
21034;SDS011;10676;50.848;3.272;2022-08-07T06:12:26;29.52;;;26.65;;
21034;SDS011;10676;50.848;3.272;2022-08-07T06:14:53;29.88;;;26.90;;
21034;SDS011;10676;50.848;3.272;2022-08-07T06:17:19;29.02;;;25.45;;
21034;SDS011;10676;50.848;3.272;2022-08-07T06:19:46;27.92;;;24.52;;
21034;SDS011;10676;50.848;3.272;2022-08-07T06:22:12;28.65;;;26.13;;
21034;SDS011;10676;50.848;3.272;2022-08-07T06:24:38;29.85;;;26.92;;
21034;SDS011;10676;50.848;3.272;2022-08-07T06:27:04;30.05;;;27.23;;
21034;SDS011;10676;50.848;3.272;2022-08-07T06:29:30;29.63;;;27.10;;
21034;SDS011;10676;50.848;3.272;2022-08-07T06:31:57;35.17;;;32.03;;
21034;SDS011;10676;50.848;3.272;2022-08-07T06:34:24;1999.90;;;999.90;;
21034;SDS011;10676;50.848;3.272;2022-08-07T06:36:50;1018.03;;;516.28;;
21034;SDS011;10676;50.848;3.272;2022-08-07T06:39:16;527.38;;;275.13;;
21034;SDS011;10676;50.848;3.272;2022-08-07T06:41:44;35.63;;;32.83;;
21034;SDS011;10676;50.848;3.272;2022-08-07T06:44:13;30.13;;;27.55;;
21034;SDS011;10676;50.848;3.272;2022-08-07T06:46:39;30.27;;;27.88;;
21034;SDS011;10676;50.848;3.272;2022-08-07T06:49:06;27.55;;;24.83;;
21034;SDS011;10676;50.848;3.272;2022-08-07T06:51:32;26.63;;;24.45;;
21034;SDS011;10676;50.848;3.272;2022-08-07T06:54:00;26.02;;;23.90;;
21034;SDS011;10676;50.848;3.272;2022-08-07T06:56:27;24.25;;;22.05;;
21034;SDS011;10676;50.848;3.272;2022-08-07T06:59:08;23.95;;;21.98;;
21034;SDS011;10676;50.848;3.272;2022-08-07T07:01:37;22.70;;;20.85;;
21034;SDS011;10676;50.848;3.272;2022-08-07T07:04:05;23.38;;;21.40;;
21034;SDS011;10676;50.848;3.272;2022-08-07T07:06:31;23.17;;;21.35;;
21034;SDS011;10676;50.848;3.272;2022-08-07T07:09:43;21.40;;;19.80;;
21034;SDS011;10676;50.848;3.272;2022-08-07T07:12:03;23.17;;;21.17;;
21034;SDS011;10676;50.848;3.272;2022-08-07T07:14:36;23.80;;;21.70;;
21034;SDS011;10676;50.848;3.272;2022-08-07T07:17:05;23.80;;;21.95;;
21034;SDS011;10676;50.848;3.272;2022-08-07T07:19:37;22.35;;;20.55;;
21034;SDS011;10676;50.848;3.272;2022-08-07T07:22:08;23.73;;;21.77;;
21034;SDS011;10676;50.848;3.272;2022-08-07T07:24:36;21.38;;;19.88;;
21034;SDS011;10676;50.848;3.272;2022-08-07T07:27:03;21.88;;;19.98;;
21034;SDS011;10676;50.848;3.272;2022-08-07T07:29:32;19.27;;;17.95;;
21034;SDS011;10676;50.848;3.272;2022-08-07T07:32:02;18.63;;;17.27;;
21034;SDS011;10676;50.848;3.272;2022-08-07T07:34:32;18.70;;;17.45;;
21034;SDS011;10676;50.848;3.272;2022-08-07T07:37:01;18.40;;;17.13;;
21034;SDS011;10676;50.848;3.272;2022-08-07T07:39:29;19.20;;;17.88;;
21034;SDS011;10676;50.848;3.272;2022-08-07T07:41:56;19.90;;;18.30;;
21034;SDS011;10676;50.848;3.272;2022-08-07T07:44:24;19.73;;;18.25;;
21034;SDS011;10676;50.848;3.272;2022-08-07T07:46:53;18.98;;;17.50;;
21034;SDS011;10676;50.848;3.272;2022-08-07T07:49:21;17.65;;;16.55;;
21034;SDS011;10676;50.848;3.272;2022-08-07T07:51:48;17.55;;;16.35;;
21034;SDS011;10676;50.848;3.272;2022-08-07T07:54:16;18.90;;;17.67;;
21034;SDS011;10676;50.848;3.272;2022-08-07T07:56:43;17.42;;;16.13;;
21034;SDS011;10676;50.848;3.272;2022-08-07T07:59:11;17.73;;;16.52;;
21034;SDS011;10676;50.848;3.272;2022-08-07T08:01:41;17.90;;;16.60;;
21034;SDS011;10676;50.848;3.272;2022-08-07T08:04:09;18.05;;;16.85;;
21034;SDS011;10676;50.848;3.272;2022-08-07T08:06:36;18.00;;;16.77;;
21034;SDS011;10676;50.848;3.272;2022-08-07T08:09:07;18.52;;;16.92;;
21034;SDS011;10676;50.848;3.272;2022-08-07T08:11:34;18.35;;;17.27;;
21034;SDS011;10676;50.848;3.272;2022-08-07T08:14:01;18.02;;;16.67;;
21034;SDS011;10676;50.848;3.272;2022-08-07T08:16:37;17.48;;;16.25;;
21034;SDS011;10676;50.848;3.272;2022-08-07T08:19:06;18.38;;;17.02;;
21034;SDS011;10676;50.848;3.272;2022-08-07T08:21:35;17.88;;;16.58;;
21034;SDS011;10676;50.848;3.272;2022-08-07T08:24:22;16.05;;;15.05;;
21034;SDS011;10676;50.848;3.272;2022-08-07T08:27:09;15.90;;;14.98;;
21034;SDS011;10676;50.848;3.272;2022-08-07T08:29:42;15.98;;;14.75;;
21034;SDS011;10676;50.848;3.272;2022-08-07T08:32:14;15.00;;;14.02;;
21034;SDS011;10676;50.848;3.272;2022-08-07T08:34:44;17.52;;;16.30;;
21034;SDS011;10676;50.848;3.272;2022-08-07T08:37:13;16.00;;;14.85;;
21034;SDS011;10676;50.848;3.272;2022-08-07T08:39:41;15.73;;;14.73;;
21034;SDS011;10676;50.848;3.272;2022-08-07T08:42:10;15.32;;;14.40;;
21034;SDS011;10676;50.848;3.272;2022-08-07T08:45:08;17.77;;;16.27;;
21034;SDS011;10676;50.848;3.272;2022-08-07T08:53:42;17.15;;;15.77;;
21034;SDS011;10676;50.848;3.272;2022-08-07T08:56:35;15.75;;;14.75;;
21034;SDS011;10676;50.848;3.272;2022-08-07T09:07:23;16.55;;;15.40;;
21034;SDS011;10676;50.848;3.272;2022-08-07T09:10:03;17.38;;;16.27;;
21034;SDS011;10676;50.848;3.272;2022-08-07T09:18:15;14.70;;;13.80;;
21034;SDS011;10676;50.848;3.272;2022-08-07T09:29:27;15.32;;;14.30;;
21034;SDS011;10676;50.848;3.272;2022-08-07T09:38:10;16.80;;;15.70;;
21034;SDS011;10676;50.848;3.272;2022-08-07T09:43:33;14.70;;;13.82;;
21034;SDS011;10676;50.848;3.272;2022-08-07T09:46:03;14.73;;;13.57;;
21034;SDS011;10676;50.848;3.272;2022-08-07T09:54:17;14.63;;;13.93;;
21034;SDS011;10676;50.848;3.272;2022-08-07T09:57:02;15.43;;;14.73;;
21034;SDS011;10676;50.848;3.272;2022-08-07T10:13:38;14.15;;;13.48;;
21034;SDS011;10676;50.848;3.272;2022-08-07T10:16:32;13.57;;;12.65;;
21034;SDS011;10676;50.848;3.272;2022-08-07T10:21:55;34.20;;;20.08;;
21034;SDS011;10676;50.848;3.272;2022-08-07T10:24:42;14.32;;;13.52;;
21034;SDS011;10676;50.848;3.272;2022-08-07T10:27:30;12.90;;;12.20;;
21034;SDS011;10676;50.848;3.272;2022-08-07T10:30:57;13.40;;;12.60;;
21034;SDS011;10676;50.848;3.272;2022-08-07T10:33:26;12.32;;;11.63;;
21034;SDS011;10676;50.848;3.272;2022-08-07T10:38:58;13.00;;;12.30;;
21034;SDS011;10676;50.848;3.272;2022-08-07T10:41:41;13.18;;;12.27;;
21034;SDS011;10676;50.848;3.272;2022-08-07T10:54:58;11.38;;;10.73;;
21034;SDS011;10676;50.848;3.272;2022-08-07T10:57:42;14.38;;;13.27;;
21034;SDS011;10676;50.848;3.272;2022-08-07T11:00:11;12.25;;;11.57;;
21034;SDS011;10676;50.848;3.272;2022-08-07T11:02:45;12.68;;;11.98;;
21034;SDS011;10676;50.848;3.272;2022-08-07T11:08:39;13.13;;;12.43;;
21034;SDS011;10676;50.848;3.272;2022-08-07T11:13:49;11.35;;;10.75;;
21034;SDS011;10676;50.848;3.272;2022-08-07T11:16:26;11.82;;;11.00;;
21034;SDS011;10676;50.848;3.272;2022-08-07T11:24:24;11.75;;;11.13;;
21034;SDS011;10676;50.848;3.272;2022-08-07T11:27:10;11.52;;;11.02;;
21034;SDS011;10676;50.848;3.272;2022-08-07T11:35:15;13.38;;;12.68;;
21034;SDS011;10676;50.848;3.272;2022-08-07T11:40:57;13.77;;;12.88;;
21034;SDS011;10676;50.848;3.272;2022-08-07T11:43:57;11.73;;;10.85;;
21034;SDS011;10676;50.848;3.272;2022-08-07T11:49:13;11.40;;;10.80;;
21034;SDS011;10676;50.848;3.272;2022-08-07T11:51:49;11.15;;;10.55;;
21034;SDS011;10676;50.848;3.272;2022-08-07T11:57:28;12.82;;;12.10;;
21034;SDS011;10676;50.848;3.272;2022-08-07T12:00:00;11.73;;;11.20;;
21034;SDS011;10676;50.848;3.272;2022-08-07T12:08:03;11.38;;;10.85;;
21034;SDS011;10676;50.848;3.272;2022-08-07T12:10:55;12.48;;;11.80;;
21034;SDS011;10676;50.848;3.272;2022-08-07T12:15:58;12.45;;;11.73;;
21034;SDS011;10676;50.848;3.272;2022-08-07T12:24:13;12.63;;;11.93;;
21034;SDS011;10676;50.848;3.272;2022-08-07T12:26:52;11.82;;;11.23;;
21034;SDS011;10676;50.848;3.272;2022-08-07T12:29:48;10.32;;;9.75;;
21034;SDS011;10676;50.848;3.272;2022-08-07T12:35:11;10.88;;;10.27;;
21034;SDS011;10676;50.848;3.272;2022-08-07T12:37:41;12.38;;;11.77;;
21034;SDS011;10676;50.848;3.272;2022-08-07T12:40:10;10.55;;;9.93;;
21034;SDS011;10676;50.848;3.272;2022-08-07T12:42:38;11.23;;;10.63;;
21034;SDS011;10676;50.848;3.272;2022-08-07T12:45:11;11.50;;;11.00;;
21034;SDS011;10676;50.848;3.272;2022-08-07T12:53:27;13.00;;;12.23;;
21034;SDS011;10676;50.848;3.272;2022-08-07T12:56:28;13.38;;;12.68;;
21034;SDS011;10676;50.848;3.272;2022-08-07T12:59:00;13.05;;;12.40;;
21034;SDS011;10676;50.848;3.272;2022-08-07T13:04:09;12.45;;;11.75;;
21034;SDS011;10676;50.848;3.272;2022-08-07T13:15:05;12.23;;;11.63;;
21034;SDS011;10676;50.848;3.272;2022-08-07T13:17:46;13.25;;;12.45;;
21034;SDS011;10676;50.848;3.272;2022-08-07T13:26:11;11.32;;;10.68;;
21034;SDS011;10676;50.848;3.272;2022-08-07T13:28:58;11.05;;;10.50;;
21034;SDS011;10676;50.848;3.272;2022-08-07T13:31:42;11.73;;;11.13;;
21034;SDS011;10676;50.848;3.272;2022-08-07T13:34:20;11.80;;;11.10;;
21034;SDS011;10676;50.848;3.272;2022-08-07T13:36:50;12.38;;;11.68;;
21034;SDS011;10676;50.848;3.272;2022-08-07T13:39:29;13.77;;;12.88;;
21034;SDS011;10676;50.848;3.272;2022-08-07T13:41:57;13.10;;;12.40;;
21034;SDS011;10676;50.848;3.272;2022-08-07T13:44:26;13.45;;;12.32;;
21034;SDS011;10676;50.848;3.272;2022-08-07T13:46:57;12.80;;;12.15;;
21034;SDS011;10676;50.848;3.272;2022-08-07T13:49:25;12.88;;;12.00;;
21034;SDS011;10676;50.848;3.272;2022-08-07T13:51:57;14.02;;;13.32;;
21034;SDS011;10676;50.848;3.272;2022-08-07T13:54:31;13.07;;;12.38;;
21034;SDS011;10676;50.848;3.272;2022-08-07T13:56:59;12.57;;;11.98;;
21034;SDS011;10676;50.848;3.272;2022-08-07T13:59:29;13.00;;;12.23;;
21034;SDS011;10676;50.848;3.272;2022-08-07T14:01:58;13.13;;;12.43;;
21034;SDS011;10676;50.848;3.272;2022-08-07T14:07:10;13.30;;;12.60;;
21034;SDS011;10676;50.848;3.272;2022-08-07T14:09:36;15.65;;;14.65;;
21034;SDS011;10676;50.848;3.272;2022-08-07T14:12:05;14.45;;;13.65;;
21034;SDS011;10676;50.848;3.272;2022-08-07T14:14:38;14.77;;;13.77;;
21034;SDS011;10676;50.848;3.272;2022-08-07T14:17:06;15.35;;;14.25;;
21034;SDS011;10676;50.848;3.272;2022-08-07T14:19:36;15.52;;;14.63;;
21034;SDS011;10676;50.848;3.272;2022-08-07T14:22:08;13.55;;;12.65;;
21034;SDS011;10676;50.848;3.272;2022-08-07T14:24:40;13.40;;;12.70;;
21034;SDS011;10676;50.848;3.272;2022-08-07T14:27:10;14.77;;;13.98;;
21034;SDS011;10676;50.848;3.272;2022-08-07T14:29:41;13.68;;;12.98;;
21034;SDS011;10676;50.848;3.272;2022-08-07T14:32:13;12.88;;;12.27;;
21034;SDS011;10676;50.848;3.272;2022-08-07T14:34:41;13.88;;;13.13;;
21034;SDS011;10676;50.848;3.272;2022-08-07T14:37:09;13.77;;;13.00;;
21034;SDS011;10676;50.848;3.272;2022-08-07T14:39:41;13.55;;;12.82;;
21034;SDS011;10676;50.848;3.272;2022-08-07T14:42:09;13.18;;;12.52;;
21034;SDS011;10676;50.848;3.272;2022-08-07T14:44:45;12.55;;;11.90;;
21034;SDS011;10676;50.848;3.272;2022-08-07T14:47:16;13.50;;;12.52;;
21034;SDS011;10676;50.848;3.272;2022-08-07T14:49:44;15.70;;;14.80;;
21034;SDS011;10676;50.848;3.272;2022-08-07T14:52:11;15.10;;;14.20;;
21034;SDS011;10676;50.848;3.272;2022-08-07T14:54:39;15.48;;;14.77;;
21034;SDS011;10676;50.848;3.272;2022-08-07T14:57:08;15.70;;;14.90;;
21034;SDS011;10676;50.848;3.272;2022-08-07T14:59:36;13.43;;;12.63;;
21034;SDS011;10676;50.848;3.272;2022-08-07T15:02:08;13.27;;;12.50;;
21034;SDS011;10676;50.848;3.272;2022-08-07T15:04:41;14.65;;;13.85;;
21034;SDS011;10676;50.848;3.272;2022-08-07T15:07:10;14.20;;;13.23;;
21034;SDS011;10676;50.848;3.272;2022-08-07T15:09:41;14.63;;;13.80;;
21034;SDS011;10676;50.848;3.272;2022-08-07T15:12:12;15.65;;;14.70;;
21034;SDS011;10676;50.848;3.272;2022-08-07T15:14:50;16.08;;;15.27;;
21034;SDS011;10676;50.848;3.272;2022-08-07T15:17:24;16.55;;;15.65;;
21034;SDS011;10676;50.848;3.272;2022-08-07T15:19:57;16.20;;;15.43;;
21034;SDS011;10676;50.848;3.272;2022-08-07T15:22:27;16.10;;;15.30;;
21034;SDS011;10676;50.848;3.272;2022-08-07T15:24:55;16.52;;;15.63;;
21034;SDS011;10676;50.848;3.272;2022-08-07T15:27:24;15.05;;;14.35;;
21034;SDS011;10676;50.848;3.272;2022-08-07T15:29:54;15.90;;;14.95;;
21034;SDS011;10676;50.848;3.272;2022-08-07T15:32:24;17.10;;;15.90;;
21034;SDS011;10676;50.848;3.272;2022-08-07T15:34:52;17.23;;;16.33;;
21034;SDS011;10676;50.848;3.272;2022-08-07T15:37:21;16.85;;;15.90;;
21034;SDS011;10676;50.848;3.272;2022-08-07T15:39:51;16.52;;;15.63;;
21034;SDS011;10676;50.848;3.272;2022-08-07T15:45:10;1999.90;;;999.90;;
21034;SDS011;10676;50.848;3.272;2022-08-07T15:47:47;1999.90;;;999.90;;
21034;SDS011;10676;50.848;3.272;2022-08-07T15:50:19;1504.80;;;754.53;;
21034;SDS011;10676;50.848;3.272;2022-08-07T15:52:45;1999.90;;;999.90;;
21034;SDS011;10676;50.848;3.272;2022-08-07T15:55:12;1999.90;;;999.90;;
21034;SDS011;10676;50.848;3.272;2022-08-07T15:57:43;1999.90;;;999.90;;
21034;SDS011;10676;50.848;3.272;2022-08-07T16:00:15;1999.90;;;999.90;;
21034;SDS011;10676;50.848;3.272;2022-08-07T16:02:43;1999.90;;;999.90;;
21034;SDS011;10676;50.848;3.272;2022-08-07T16:05:12;1999.90;;;999.90;;
21034;SDS011;10676;50.848;3.272;2022-08-07T16:07:57;1999.90;;;999.90;;
21034;SDS011;10676;50.848;3.272;2022-08-07T16:10:29;1999.90;;;999.90;;
21034;SDS011;10676;50.848;3.272;2022-08-07T16:21:00;1999.90;;;999.90;;
21034;SDS011;10676;50.848;3.272;2022-08-07T16:26:53;1999.90;;;999.90;;
21034;SDS011;10676;50.848;3.272;2022-08-07T16:29:52;1999.90;;;999.90;;
21034;SDS011;10676;50.848;3.272;2022-08-07T16:32:34;1999.90;;;999.90;;
21034;SDS011;10676;50.848;3.272;2022-08-07T16:45:58;1999.90;;;999.90;;
21034;SDS011;10676;50.848;3.272;2022-08-07T16:51:51;1999.90;;;999.90;;
21034;SDS011;10676;50.848;3.272;2022-08-07T16:59:49;1999.90;;;999.90;;
21034;SDS011;10676;50.848;3.272;2022-08-07T17:08:09;1999.90;;;999.90;;
21034;SDS011;10676;50.848;3.272;2022-08-07T17:10:51;1999.90;;;999.90;;
21034;SDS011;10676;50.848;3.272;2022-08-07T17:16:11;1999.90;;;999.90;;
21034;SDS011;10676;50.848;3.272;2022-08-07T17:21:29;1999.90;;;999.90;;
21034;SDS011;10676;50.848;3.272;2022-08-07T17:24:03;1999.90;;;999.90;;
21034;SDS011;10676;50.848;3.272;2022-08-07T17:26:53;1999.90;;;999.90;;
21034;SDS011;10676;50.848;3.272;2022-08-07T17:32:20;1999.90;;;999.90;;
21034;SDS011;10676;50.848;3.272;2022-08-07T17:35:11;1999.90;;;999.90;;
21034;SDS011;10676;50.848;3.272;2022-08-07T17:44:03;1999.90;;;999.90;;
21034;SDS011;10676;50.848;3.272;2022-08-07T17:49:47;1999.90;;;999.90;;
21034;SDS011;10676;50.848;3.272;2022-08-07T17:52:34;1999.90;;;999.90;;
21034;SDS011;10676;50.848;3.272;2022-08-07T17:55:06;1999.90;;;999.90;;
21034;SDS011;10676;50.848;3.272;2022-08-07T18:00:10;1999.90;;;999.90;;
21034;SDS011;10676;50.848;3.272;2022-08-07T18:05:30;1999.90;;;999.90;;
21034;SDS011;10676;50.848;3.272;2022-08-07T18:10:40;1999.90;;;999.90;;
21034;SDS011;10676;50.848;3.272;2022-08-07T18:19:20;1999.90;;;999.90;;
21034;SDS011;10676;50.848;3.272;2022-08-07T18:21:58;1999.90;;;999.90;;